Terminal Aerodrome Forecast
Issued by NWS

Home | Current Version | Previous Version | Text Only | Print | Product List | Glossary On
Versions: 1 2 3 4 5 6 7 8 9 10 11 12
104
FTUS42 TJSJ 261742
TAFJBQ
TAF
TJBQ 261742Z 2618/2718 08014KT P6SM FEW035
     FM262300 10007KT P6SM FEW030 SCT070
     FM271500 08014G24KT P6SM VCSH SCT025 SCT050=

USA.gov is the U.S. government's official web portal to all federal, state and local government web resources and services.